createdAt,value
2023-01-15T00:02:22.165Z,9.30
2023-01-15T00:04:51.903Z,9.20
2023-01-15T00:07:18.676Z,9.20
2023-01-15T00:09:45.498Z,9.20
2023-01-15T00:12:17.905Z,9.10
2023-01-15T00:14:45.615Z,9.10
2023-01-15T00:17:12.416Z,9.00
2023-01-15T00:19:42.772Z,9.00
2023-01-15T00:22:14.324Z,9.00
2023-01-15T00:25:04.055Z,8.90
2023-01-15T00:27:44.404Z,9.30
2023-01-15T00:30:21.913Z,8.90
2023-01-15T00:32:53.794Z,8.90
2023-01-15T00:35:23.541Z,8.90
2023-01-15T00:37:51.215Z,8.80
2023-01-15T00:40:20.167Z,8.60
2023-01-15T00:42:54.133Z,8.80
2023-01-15T00:45:21.871Z,9.20
2023-01-15T00:47:50.519Z,9.00
2023-01-15T00:50:17.468Z,9.10
2023-01-15T00:52:44.386Z,8.70
2023-01-15T00:55:11.213Z,8.80
2023-01-15T00:57:38.172Z,8.20
2023-01-15T01:00:06.356Z,9.20
2023-01-15T01:02:33.360Z,8.70
2023-01-15T01:05:00.232Z,9.00
2023-01-15T01:07:27.063Z,9.10
2023-01-15T01:09:53.853Z,8.80
2023-01-15T01:12:21.402Z,8.70
2023-01-15T01:14:48.187Z,8.80
2023-01-15T01:17:14.975Z,8.70
2023-01-15T01:19:41.856Z,8.80
2023-01-15T01:22:08.668Z,8.80
2023-01-15T01:24:35.530Z,9.40
2023-01-15T01:27:12.249Z,8.80
2023-01-15T01:30:17.175Z,8.80
2023-01-15T01:34:01.052Z,8.80
2023-01-15T01:36:37.111Z,8.90
2023-01-15T01:41:34.483Z,8.90
2023-01-15T01:44:22.341Z,8.90
2023-01-15T01:46:49.181Z,8.90
2023-01-15T01:49:15.936Z,8.90
2023-01-15T01:52:06.598Z,8.90
2023-01-15T01:54:38.510Z,8.90
2023-01-15T01:57:08.573Z,8.90
2023-01-15T01:59:37.985Z,8.90
2023-01-15T02:02:05.521Z,9.00
2023-01-15T02:04:33.491Z,8.90
2023-01-15T02:07:02.147Z,8.90
2023-01-15T02:09:29.094Z,8.90
2023-01-15T02:12:06.394Z,8.90
2023-01-15T02:14:51.160Z,8.90
2023-01-15T02:17:41.928Z,8.90
2023-01-15T02:20:37.329Z,9.10
2023-01-15T02:23:21.763Z,8.90
2023-01-15T02:26:32.454Z,8.90
2023-01-15T02:29:02.409Z,8.90
2023-01-15T02:31:43.426Z,9.00
2023-01-15T02:34:18.716Z,9.00
2023-01-15T02:36:54.599Z,8.90
2023-01-15T02:39:25.040Z,9.00
2023-01-15T02:41:57.177Z,9.00
2023-01-15T02:44:29.463Z,9.00
2023-01-15T02:46:59.445Z,9.00
2023-01-15T02:49:26.764Z,9.00
2023-01-15T02:52:09.989Z,9.00
2023-01-15T02:54:47.819Z,9.00
2023-01-15T02:57:18.531Z,9.00
2023-01-15T02:59:49.947Z,9.00
2023-01-15T03:02:26.904Z,9.00
2023-01-15T03:05:18.260Z,9.00
2023-01-15T03:07:52.900Z,9.10
2023-01-15T03:10:24.829Z,8.70
2023-01-15T03:13:04.156Z,9.10
2023-01-15T03:16:09.739Z,9.10
2023-01-15T03:18:53.252Z,9.10
2023-01-15T03:21:31.283Z,9.10
2023-01-15T03:24:06.427Z,9.60
2023-01-15T03:26:33.343Z,9.10
2023-01-15T03:29:03.564Z,9.10
2023-01-15T03:31:30.590Z,9.10
2023-01-15T03:33:57.508Z,9.10
2023-01-15T03:36:24.259Z,9.10
2023-01-15T03:38:51.904Z,9.10
2023-01-15T03:41:35.381Z,9.20
2023-01-15T03:44:26.754Z,9.10
2023-01-15T03:47:12.037Z,9.10
2023-01-15T03:49:47.549Z,9.10
2023-01-15T03:52:32.544Z,9.00
2023-01-15T03:55:36.384Z,9.10
2023-01-15T03:58:20.068Z,9.10
2023-01-15T04:00:56.052Z,9.00
2023-01-15T04:03:25.678Z,9.00
2023-01-15T04:05:57.666Z,9.00
2023-01-15T04:08:28.210Z,9.00
2023-01-15T04:11:01.803Z,9.00
2023-01-15T04:13:31.400Z,9.00
2023-01-15T04:20:48.637Z,9.00
2023-01-15T04:24:24.750Z,9.10
2023-01-15T04:27:35.301Z,9.00
2023-01-15T04:30:02.454Z,9.00
2023-01-15T04:32:29.288Z,9.10
2023-01-15T04:34:56.043Z,9.10
2023-01-15T04:37:22.791Z,9.10
2023-01-15T04:39:49.607Z,9.00
2023-01-15T04:42:34.668Z,9.10
2023-01-15T04:45:01.410Z,9.10
2023-01-15T04:47:31.449Z,9.10
2023-01-15T04:49:58.215Z,9.10
2023-01-15T04:52:25.023Z,9.10
2023-01-15T04:54:54.840Z,9.10
2023-01-15T04:57:21.810Z,8.80
2023-01-15T04:59:48.630Z,9.00
2023-01-15T05:02:15.827Z,9.10
2023-01-15T05:04:42.930Z,9.10
2023-01-15T05:07:10.197Z,9.00
2023-01-15T05:09:37.333Z,9.10
2023-01-15T05:12:04.640Z,9.10
2023-01-15T05:14:31.463Z,9.10
2023-01-15T05:16:58.208Z,9.10
2023-01-15T05:19:24.985Z,9.10
2023-01-15T05:21:51.729Z,9.10
2023-01-15T05:24:19.573Z,9.10
2023-01-15T05:26:46.468Z,9.10
2023-01-15T05:29:13.999Z,9.10
2023-01-15T05:31:42.642Z,9.10
2023-01-15T05:34:10.368Z,9.10
2023-01-15T05:36:37.799Z,9.10
2023-01-15T05:39:05.178Z,9.50
2023-01-15T05:41:50.050Z,8.90
2023-01-15T05:44:29.768Z,9.00
2023-01-15T05:47:02.426Z,9.00
2023-01-15T05:49:31.335Z,9.00
2023-01-15T05:52:00.751Z,8.90
2023-01-15T05:54:33.899Z,8.90
2023-01-15T05:57:01.688Z,9.00
2023-01-15T05:59:31.105Z,8.90
2023-01-15T06:01:58.333Z,8.90
2023-01-15T06:04:25.558Z,8.90
2023-01-15T06:06:56.626Z,8.80
2023-01-15T06:09:24.558Z,8.80
2023-01-15T06:15:00.691Z,8.80
2023-01-15T06:17:27.473Z,8.80
2023-01-15T06:20:36.119Z,9.30
2023-01-15T06:23:20.651Z,8.80
2023-01-15T06:27:04.194Z,8.80
2023-01-15T06:29:28.759Z,8.80
2023-01-15T06:31:55.514Z,8.70
2023-01-15T06:34:22.245Z,8.80
2023-01-15T06:36:48.983Z,8.80
2023-01-15T06:39:16.354Z,8.90
2023-01-15T06:42:01.583Z,8.80
2023-01-15T06:44:47.163Z,8.80
2023-01-15T06:47:21.589Z,8.80
2023-01-15T06:49:52.526Z,8.80
2023-01-15T06:52:19.302Z,8.80
2023-01-15T06:54:46.624Z,8.80
2023-01-15T06:57:13.652Z,8.80
2023-01-15T06:59:40.389Z,8.80
2023-01-15T07:02:07.392Z,8.80
2023-01-15T07:04:34.249Z,8.90
2023-01-15T07:07:01.043Z,8.90
2023-01-15T07:09:27.891Z,8.80
2023-01-15T07:11:54.717Z,9.30
2023-01-15T07:14:28.129Z,8.80
2023-01-15T07:16:55.669Z,8.80
2023-01-15T07:19:22.583Z,8.90
2023-01-15T07:21:49.353Z,8.90
2023-01-15T07:24:17.318Z,8.80
2023-01-15T07:26:45.713Z,8.90
2023-01-15T07:29:13.633Z,8.90
2023-01-15T07:31:41.382Z,8.90
2023-01-15T07:34:08.729Z,8.90
2023-01-15T07:36:36.150Z,8.90
2023-01-15T07:39:07.934Z,8.80
2023-01-15T07:41:53.439Z,9.30
2023-01-15T07:44:39.144Z,9.00
2023-01-15T07:47:39.019Z,8.90
2023-01-15T07:50:11.291Z,8.70
2023-01-15T07:52:38.117Z,8.60
2023-01-15T07:55:05.727Z,8.40
2023-01-15T07:57:32.579Z,8.30
2023-01-15T07:59:59.313Z,8.10
2023-01-15T08:02:27.216Z,8.00
2023-01-15T08:04:53.954Z,7.90
2023-01-15T08:07:20.704Z,7.80
2023-01-15T08:09:47.432Z,7.80
2023-01-15T08:12:33.021Z,7.70
2023-01-15T08:15:15.037Z,7.70
2023-01-15T08:17:47.991Z,7.70
2023-01-15T08:20:21.976Z,7.70
2023-01-15T08:22:48.998Z,7.70
2023-01-15T08:25:22.016Z,7.70
2023-01-15T08:27:48.984Z,7.70
2023-01-15T08:30:24.356Z,7.70
2023-01-15T08:32:51.158Z,7.70
2023-01-15T08:35:18.051Z,7.70
2023-01-15T08:37:44.977Z,7.80
2023-01-15T08:40:28.223Z,8.30
2023-01-15T08:42:56.968Z,7.60
2023-01-15T08:45:48.239Z,7.80
2023-01-15T08:48:40.141Z,7.90
2023-01-15T08:51:10.603Z,7.90
2023-01-15T08:53:38.501Z,8.30
2023-01-15T09:15:17.102Z,8.30
2023-01-15T09:17:44.116Z,8.30
2023-01-15T09:20:21.335Z,8.90
2023-01-15T09:23:06.483Z,8.30
2023-01-15T09:26:06.835Z,8.00
2023-01-15T09:29:34.591Z,8.50
2023-01-15T09:33:38.849Z,8.90
2023-01-15T09:35:39.405Z,8.70
2023-01-15T09:39:05.805Z,9.70
2023-01-15T09:46:08.558Z,10.90
2023-01-15T09:49:22.109Z,10.60
2023-01-15T09:52:41.190Z,10.70
2023-01-15T09:55:27.454Z,11.70
2023-01-15T09:57:59.113Z,12.30
2023-01-15T10:00:33.259Z,13.10
2023-01-15T10:03:13.479Z,13.40
2023-01-15T10:06:19.766Z,13.50
2023-01-15T10:12:35.364Z,14.70
2023-01-15T10:15:15.706Z,15.10
2023-01-15T10:22:15.785Z,15.10
2023-01-15T10:25:05.809Z,15.10
2023-01-15T10:27:33.563Z,15.10
2023-01-15T10:41:02.236Z,15.30
2023-01-15T10:43:52.316Z,15.30
2023-01-15T10:46:33.539Z,15.30
2023-01-15T10:49:10.925Z,15.40
2023-01-15T10:52:03.021Z,15.40
2023-01-15T10:54:40.232Z,15.40
2023-01-15T10:57:56.504Z,15.40
2023-01-15T11:00:28.728Z,15.40
2023-01-15T11:03:08.708Z,15.40
2023-01-15T11:05:36.448Z,15.30
2023-01-15T11:08:45.306Z,15.10
2023-01-15T11:10:56.099Z,14.90
2023-01-15T11:13:45.580Z,14.60
2023-01-15T11:16:37.899Z,14.40
2023-01-15T11:19:26.155Z,14.00
2023-01-15T11:21:54.610Z,13.70
2023-01-15T11:24:21.392Z,13.40
2023-01-15T11:26:54.673Z,13.20
2023-01-15T11:29:33.633Z,13.00
2023-01-15T11:32:00.396Z,12.80
2023-01-15T11:34:27.187Z,12.60
2023-01-15T11:37:06.152Z,12.40
2023-01-15T11:39:33.514Z,12.10
2023-01-15T11:42:34.453Z,12.00
2023-01-15T11:45:19.678Z,11.80
2023-01-15T11:48:15.126Z,11.60
2023-01-15T11:51:12.148Z,11.50
2023-01-15T11:53:50.326Z,11.50
2023-01-15T11:56:23.178Z,11.20
2023-01-15T11:59:04.540Z,11.10
2023-01-15T12:01:50.239Z,11.00
2023-01-15T12:05:01.203Z,11.00
2023-01-15T12:07:29.936Z,10.90
2023-01-15T12:10:39.988Z,10.80
2023-01-15T12:13:25.315Z,10.70
2023-01-15T12:16:17.377Z,10.70
2023-01-15T12:19:22.645Z,10.60
2023-01-15T12:22:39.043Z,10.60
2023-01-15T12:26:05.307Z,10.60
2023-01-15T12:28:53.438Z,10.60
2023-01-15T12:31:54.064Z,10.70
2023-01-15T12:34:42.184Z,10.80
2023-01-15T12:37:32.518Z,10.90
2023-01-15T12:40:41.453Z,10.90
2023-01-15T12:43:40.464Z,11.00
2023-01-15T12:46:31.301Z,11.00
2023-01-15T12:49:52.945Z,11.10
2023-01-15T12:52:26.949Z,11.10
2023-01-15T12:55:22.237Z,11.10
2023-01-15T12:57:54.931Z,11.10
2023-01-15T13:00:34.789Z,11.10
2023-01-15T13:03:30.278Z,11.00
2023-01-15T13:06:05.390Z,11.00
2023-01-15T13:08:59.326Z,11.00
2023-01-15T13:11:26.688Z,11.00
2023-01-15T13:13:59.155Z,11.00
2023-01-15T13:16:54.528Z,11.00
2023-01-15T13:19:40.387Z,10.90
2023-01-15T13:22:25.170Z,10.90
2023-01-15T13:25:20.557Z,10.80
2023-01-15T13:28:03.636Z,10.80
2023-01-15T13:30:56.079Z,10.80
2023-01-15T13:33:46.151Z,10.80
2023-01-15T13:36:30.203Z,10.80
2023-01-15T13:39:02.824Z,10.70
2023-01-15T13:41:52.632Z,10.70
2023-01-15T13:44:23.489Z,10.70
2023-01-15T13:47:10.275Z,10.70
2023-01-15T13:49:50.602Z,10.70
2023-01-15T13:52:31.646Z,10.70
2023-01-15T13:55:13.084Z,10.70
2023-01-15T13:57:42.242Z,10.70
2023-01-15T14:00:36.514Z,10.80
2023-01-15T14:03:31.912Z,10.60
2023-01-15T14:06:02.917Z,10.60
2023-01-15T14:08:45.504Z,10.60
2023-01-15T14:11:37.072Z,10.60
2023-01-15T14:14:57.788Z,10.50
2023-01-15T14:17:57.548Z,10.50
2023-01-15T14:20:45.594Z,10.40
2023-01-15T14:23:40.449Z,10.40
2023-01-15T14:26:32.282Z,10.40
2023-01-15T14:29:53.346Z,10.40
2023-01-15T14:33:03.302Z,10.30
2023-01-15T14:35:37.697Z,10.30
2023-01-15T14:38:12.298Z,10.30
2023-01-15T14:41:03.130Z,10.30
2023-01-15T14:43:36.125Z,10.30
2023-01-15T14:46:41.905Z,10.30
2023-01-15T14:49:42.126Z,10.20
2023-01-15T14:52:09.766Z,10.20
2023-01-15T14:54:39.377Z,10.20
2023-01-15T14:57:09.095Z,10.20
2023-01-15T14:59:53.343Z,10.20
2023-01-15T15:02:33.277Z,10.10
2023-01-15T15:05:01.768Z,10.10
2023-01-15T15:07:43.547Z,10.10
2023-01-15T15:10:17.112Z,10.10
2023-01-15T15:12:52.210Z,10.00
2023-01-15T15:15:24.923Z,10.00
2023-01-15T15:18:13.971Z,10.00
2023-01-15T15:20:58.384Z,9.90
2023-01-15T15:23:46.981Z,9.90
2023-01-15T15:26:32.875Z,9.80
2023-01-15T15:29:10.114Z,9.80
2023-01-15T15:31:58.126Z,9.80
2023-01-15T15:34:37.967Z,9.80
2023-01-15T15:37:14.854Z,9.70
2023-01-15T15:40:02.744Z,9.70
2023-01-15T15:42:56.650Z,9.70
2023-01-15T15:45:49.139Z,9.70
2023-01-15T15:48:38.605Z,9.70
2023-01-15T15:51:22.959Z,9.70
2023-01-15T15:53:49.670Z,9.70
2023-01-15T15:56:17.638Z,9.70
2023-01-15T15:58:45.869Z,9.70
2023-01-15T16:01:14.061Z,9.70
2023-01-15T16:03:48.590Z,9.70
2023-01-15T16:06:27.360Z,9.70
2023-01-15T16:09:06.310Z,9.70
2023-01-15T16:11:34.394Z,9.70
2023-01-15T16:14:07.949Z,9.60
2023-01-15T16:16:35.114Z,9.70
2023-01-15T16:19:03.280Z,9.70
2023-01-15T16:21:35.349Z,9.70
2023-01-15T16:24:25.550Z,9.60
2023-01-15T16:27:08.687Z,9.60
2023-01-15T16:29:36.152Z,9.60
2023-01-15T16:32:14.324Z,9.60
2023-01-15T16:34:41.529Z,9.60
2023-01-15T16:37:30.530Z,9.60
2023-01-15T16:40:01.195Z,9.60
2023-01-15T16:42:35.030Z,9.50
2023-01-15T16:45:22.494Z,9.50
2023-01-15T16:48:07.837Z,9.50
2023-01-15T16:50:37.267Z,9.90
2023-01-15T16:53:06.488Z,9.50
2023-01-15T16:55:38.699Z,9.50
2023-01-15T16:58:20.286Z,9.50
2023-01-15T17:00:53.439Z,9.40
2023-01-15T17:03:26.534Z,9.40
2023-01-15T17:06:03.911Z,9.40
2023-01-15T17:08:39.988Z,9.40
2023-01-15T17:11:35.999Z,9.30
2023-01-15T17:14:19.984Z,9.30
2023-01-15T17:16:47.058Z,9.30
2023-01-15T17:19:15.291Z,9.30
2023-01-15T17:21:45.132Z,9.20
2023-01-15T17:24:12.211Z,9.20
2023-01-15T17:26:39.255Z,9.20
2023-01-15T17:29:05.969Z,9.40
2023-01-15T17:31:34.610Z,9.20
2023-01-15T17:34:03.457Z,9.20
2023-01-15T17:36:31.170Z,9.20
2023-01-15T17:38:58.120Z,9.10
2023-01-15T17:41:24.976Z,9.10
2023-01-15T17:43:51.887Z,9.10
2023-01-15T17:46:18.721Z,9.10
2023-01-15T17:48:45.746Z,9.10
2023-01-15T17:51:15.346Z,9.00
2023-01-15T17:53:42.682Z,9.10
2023-01-15T17:56:28.184Z,9.00
2023-01-15T17:59:13.603Z,8.90
2023-01-15T18:02:05.558Z,8.90
2023-01-15T18:05:00.487Z,8.80
2023-01-15T18:07:37.434Z,8.80
2023-01-15T18:10:05.385Z,8.80
2023-01-15T18:12:32.144Z,8.70
2023-01-15T18:14:58.958Z,8.70
2023-01-15T18:17:25.693Z,8.70
2023-01-15T18:19:53.889Z,8.70
2023-01-15T18:22:21.690Z,8.70
2023-01-15T18:24:48.438Z,8.60
2023-01-15T18:27:15.158Z,8.60
2023-01-15T18:29:41.863Z,8.60
2023-01-15T18:32:09.325Z,8.60
2023-01-15T18:34:36.963Z,8.60
2023-01-15T18:37:08.118Z,8.60
2023-01-15T18:39:37.028Z,8.60
2023-01-15T18:42:04.384Z,8.50
2023-01-15T18:44:49.681Z,8.60
2023-01-15T18:48:02.958Z,8.50
2023-01-15T19:58:31.867Z,8.70
2023-01-15T20:00:58.678Z,8.70
2023-01-15T20:03:25.471Z,8.70
2023-01-15T20:05:52.226Z,8.80
2023-01-15T20:08:19.034Z,8.80
2023-01-15T20:10:48.840Z,8.80
2023-01-15T20:13:41.464Z,8.80
2023-01-15T20:16:12.104Z,8.80
2023-01-15T20:18:39.885Z,8.80
2023-01-15T20:21:07.887Z,8.80
2023-01-15T20:23:36.500Z,8.80
2023-01-15T20:26:10.530Z,8.80
2023-01-15T20:28:39.964Z,8.80
2023-01-15T20:31:07.233Z,8.80
2023-01-15T20:33:33.940Z,8.80
2023-01-15T20:36:04.562Z,8.80
2023-01-15T20:38:31.649Z,8.80
2023-01-15T20:41:18.347Z,8.80
2023-01-15T20:44:03.860Z,8.80
2023-01-15T20:46:30.610Z,8.80
2023-01-15T20:49:15.949Z,8.80
2023-01-15T20:51:42.659Z,8.80
2023-01-15T20:54:09.368Z,8.80
2023-01-15T20:56:36.098Z,8.80
2023-01-15T20:59:02.814Z,8.80
2023-01-15T21:01:29.777Z,8.80
2023-01-15T21:03:56.552Z,8.80
2023-01-15T21:06:24.581Z,8.70
2023-01-15T21:08:51.327Z,8.70
2023-01-15T21:11:18.471Z,8.70
2023-01-15T21:13:45.878Z,8.60
2023-01-15T21:16:14.957Z,8.60
2023-01-15T21:18:44.994Z,8.50
2023-01-15T21:21:15.706Z,8.50
2023-01-15T21:23:45.369Z,8.50
2023-01-15T21:26:14.201Z,8.40
2023-01-15T21:28:41.537Z,8.40
2023-01-15T21:31:10.226Z,8.30
2023-01-15T21:33:37.813Z,8.30
2023-01-15T21:36:14.380Z,8.20
2023-01-15T21:38:41.764Z,8.20
2023-01-15T21:41:14.540Z,8.20
2023-01-15T21:44:01.707Z,8.20
2023-01-15T21:46:29.247Z,8.10
2023-01-15T21:48:58.591Z,8.10
2023-01-15T21:51:26.868Z,8.10
2023-01-15T21:53:54.108Z,8.10
2023-01-15T21:56:21.055Z,8.10
2023-01-15T21:58:47.794Z,8.10
2023-01-15T22:01:18.015Z,8.10
2023-01-15T22:03:45.856Z,8.10
2023-01-15T22:06:12.990Z,8.10
2023-01-15T22:08:40.067Z,8.10
2023-01-15T22:11:10.088Z,8.10
2023-01-15T22:13:38.108Z,8.10
2023-01-15T22:16:05.322Z,8.10
2023-01-15T22:18:33.951Z,8.10
2023-01-15T22:21:05.207Z,8.10
2023-01-15T22:23:34.134Z,8.10
2023-01-15T22:26:00.897Z,8.20
2023-01-15T22:28:27.594Z,8.20
2023-01-15T22:30:54.395Z,8.20
2023-01-15T22:33:21.463Z,8.20
2023-01-15T22:35:58.090Z,8.20
2023-01-15T22:38:24.926Z,8.20
2023-01-15T22:40:56.803Z,8.20
2023-01-15T22:43:23.488Z,8.30
2023-01-15T22:45:50.418Z,8.30
2023-01-15T22:48:17.174Z,8.30
2023-01-15T22:50:43.885Z,8.30
2023-01-15T22:53:10.602Z,8.40
2023-01-15T22:55:37.341Z,8.40
2023-01-15T22:58:04.129Z,8.40
2023-01-15T23:00:31.864Z,8.40
2023-01-15T23:03:05.149Z,8.30
2023-01-15T23:05:40.035Z,8.30
2023-01-15T23:08:07.645Z,8.30
2023-01-15T23:10:34.418Z,8.30
2023-01-15T23:13:01.159Z,8.20
2023-01-15T23:15:27.941Z,8.20
2023-01-15T23:17:54.768Z,8.20
2023-01-15T23:20:21.549Z,8.20
2023-01-15T23:22:48.312Z,8.20
2023-01-15T23:25:15.084Z,8.20
2023-01-15T23:27:41.869Z,8.50
2023-01-15T23:30:09.894Z,8.10
2023-01-15T23:32:39.438Z,8.20
2023-01-15T23:35:08.274Z,8.20
2023-01-15T23:37:35.049Z,8.20
2023-01-15T23:40:01.826Z,8.20
2023-01-15T23:42:47.218Z,8.20
2023-01-15T23:45:32.436Z,8.20
2023-01-15T23:47:59.139Z,8.20
2023-01-15T23:50:25.945Z,8.20
2023-01-15T23:52:52.660Z,8.20
2023-01-15T23:55:19.441Z,8.20
2023-01-15T23:57:46.157Z,8.20
